Share

Loyal, WI

Marshfield Municipal (KMFI) Elev 1276 ft | 44.64 °N, 90.19 °W | Change Station

Current weather conditions updated 11 minutes ago

Clear
Clear
29 °F
Feels Like 29 °F
N
0
Wind Variable Wind from North
Sunrise 6:12 AM
Sunset 7:50 PM
Moon Waning Gibbous

Today is forecast to be Warmer than yesterday.

Pressure 30.37 in
Visibility 10.0 miles
Clouds Clear
Dew Point 25 °F
Humidity 85%
Rainfall 0.00 in
Snow Depth Not available.
UV 0 out of 16
Pollen 5.50 out of 12
Air Quality Not available.
Flu Activity Sporadic
METAR KMFI 181054Z AUTO 00000KT 10SM CLR M02/M04 A3032 RMK AO2 SLP283 T10171039

More Conditions Fewer Conditions

Pressure 30.37 in
Visibility 10.0 miles
Clouds Clear
Dew Point 25 °F
Humidity 85%
Rainfall 0.00 in
Snow Depth Not available.
UV 0 out of 16
Pollen 5.50 out of 12
Air Quality Not available.
Flu Activity Sporadic
METAR KMFI 181054Z AUTO 00000KT 10SM CLR M02/M04 A3032 RMK AO2 SLP283 T10171039

More Conditions Fewer Conditions

10-Day Forecast

Almanac

Astronomy

Apr. 18, 2014 Rise Set
Actual Time 6:12 AM CDT 7:50 PM CDT
Civil Twilight 5:41 AM CDT 8:21 PM CDT
Nautical Twilight 5:04 AM CDT 8:59 PM CDT
Astronomical Twilight 4:24 AM CDT 9:39 PM CDT
Moon 11:42 PM CDT 8:29 AM CDT
Length of Visible Light 14h 39m
Length of Day
13h 38m
Tomorrow will be 2m 56s longer.
Waning Gibbous, 89% of the Moon is Illuminated
Today
Waning Gibbous
Apr 22
Last Quarter
Apr 29
New
May 6
First Quarter
May 14
Full

Today's Extremes

State Highs State Lows

Community

  • SUNRISE THROUGH THE TREES.
    SUNRISE THROUGH THE TREES.
  • Dog Wood Blossoms
    Dog Wood Blossoms
  • Morning Light
    Morning Light
  • New Day
    New Day
  • Lake Michigan Sunrise
    Lake Michigan Sunrise

WunderPhotos

Upload Photos

1,702,313 photos uploaded!

Nearby

Snow Depth

Station Depth Elevation
No new snow has been reported.

Coastal Water Temperatures

Place Temperature
No Stations Reporting

Earthquake Activity

City Distance Mag. Time & Date
No recent earthquake activity has been reported nearby.
Minimum magnitude displayed is 2.5.

Nearby Weather Stations

Station Location Temp. Windchill Dew Point Humidity Wind Precip. Elev Updated Type
WIDOT Abbotsford - STH 29 3 mi E of Abbo, Abbotsford, WI 27 °F 27 °F 26 °F 96% NW  at  0 mph 0.00 in / hr 1400 ft 4:52 AM CDT MADIS
MesoWest HUMBIR , Humbird, WI 27 °F 27 °F - - North  at  - 0.00 in / hr 1092 ft 4:15 AM CDT MADIS

Show More Stations Show Fewer Stations

What do you think?

We're not finished. Please let us know what you like, what you don't like, and what you are still missing.